sensor_id;sensor_type;location;lat;lon;timestamp;P1;durP1;ratioP1;P2;durP2;ratioP2
39740;SDS011;25426;53.478;10.190;2023-05-10T00:01:15;6.13;;;4.13;;
39740;SDS011;25426;53.478;10.190;2023-05-10T00:03:46;5.15;;;4.60;;
39740;SDS011;25426;53.478;10.190;2023-05-10T00:06:17;5.30;;;4.63;;
39740;SDS011;25426;53.478;10.190;2023-05-10T00:08:48;5.95;;;4.78;;
39740;SDS011;25426;53.478;10.190;2023-05-10T00:11:19;6.75;;;5.22;;
39740;SDS011;25426;53.478;10.190;2023-05-10T00:13:50;6.63;;;4.70;;
39740;SDS011;25426;53.478;10.190;2023-05-10T00:16:21;6.20;;;4.63;;
39740;SDS011;25426;53.478;10.190;2023-05-10T00:18:52;6.38;;;4.50;;
39740;SDS011;25426;53.478;10.190;2023-05-10T00:21:23;6.88;;;4.82;;
39740;SDS011;25426;53.478;10.190;2023-05-10T00:23:54;9.23;;;4.80;;
39740;SDS011;25426;53.478;10.190;2023-05-10T00:26:25;7.18;;;4.85;;
39740;SDS011;25426;53.478;10.190;2023-05-10T00:28:59;5.83;;;4.80;;
39740;SDS011;25426;53.478;10.190;2023-05-10T00:31:30;11.90;;;4.85;;
39740;SDS011;25426;53.478;10.190;2023-05-10T00:34:01;6.43;;;4.32;;
39740;SDS011;25426;53.478;10.190;2023-05-10T00:36:32;10.27;;;5.00;;
39740;SDS011;25426;53.478;10.190;2023-05-10T00:39:03;10.40;;;4.85;;
39740;SDS011;25426;53.478;10.190;2023-05-10T00:41:34;6.38;;;4.63;;
39740;SDS011;25426;53.478;10.190;2023-05-10T00:44:07;5.63;;;4.63;;
39740;SDS011;25426;53.478;10.190;2023-05-10T00:46:38;6.22;;;4.85;;
39740;SDS011;25426;53.478;10.190;2023-05-10T00:49:09;6.70;;;4.93;;
39740;SDS011;25426;53.478;10.190;2023-05-10T00:51:41;4.88;;;4.20;;
39740;SDS011;25426;53.478;10.190;2023-05-10T00:54:14;6.03;;;5.10;;
39740;SDS011;25426;53.478;10.190;2023-05-10T00:56:45;5.78;;;4.70;;
39740;SDS011;25426;53.478;10.190;2023-05-10T00:59:18;5.57;;;4.75;;
39740;SDS011;25426;53.478;10.190;2023-05-10T01:01:50;6.00;;;4.82;;
39740;SDS011;25426;53.478;10.190;2023-05-10T01:04:21;7.00;;;4.80;;
39740;SDS011;25426;53.478;10.190;2023-05-10T01:06:55;6.40;;;5.30;;
39740;SDS011;25426;53.478;10.190;2023-05-10T01:09:26;7.25;;;4.78;;
39740;SDS011;25426;53.478;10.190;2023-05-10T01:11:57;7.38;;;4.93;;
39740;SDS011;25426;53.478;10.190;2023-05-10T01:14:29;7.50;;;4.78;;
39740;SDS011;25426;53.478;10.190;2023-05-10T01:17:00;5.90;;;5.30;;
39740;SDS011;25426;53.478;10.190;2023-05-10T01:19:34;8.07;;;4.80;;
39740;SDS011;25426;53.478;10.190;2023-05-10T01:22:08;6.03;;;4.40;;
39740;SDS011;25426;53.478;10.190;2023-05-10T01:28:34;5.88;;;4.70;;
39740;SDS011;25426;53.478;10.190;2023-05-10T01:37:59;6.90;;;5.20;;
39740;SDS011;25426;53.478;10.190;2023-05-10T01:43:50;6.18;;;4.95;;
39740;SDS011;25426;53.478;10.190;2023-05-10T01:46:40;7.28;;;4.85;;
39740;SDS011;25426;53.478;10.190;2023-05-10T01:49:13;8.10;;;5.50;;
39740;SDS011;25426;53.478;10.190;2023-05-10T01:51:59;7.53;;;5.50;;
39740;SDS011;25426;53.478;10.190;2023-05-10T01:54:41;6.60;;;4.95;;
39740;SDS011;25426;53.478;10.190;2023-05-10T01:57:25;6.85;;;5.07;;
39740;SDS011;25426;53.478;10.190;2023-05-10T01:59:57;8.83;;;5.00;;
39740;SDS011;25426;53.478;10.190;2023-05-10T02:02:33;5.78;;;4.93;;
39740;SDS011;25426;53.478;10.190;2023-05-10T02:05:09;6.72;;;5.00;;
39740;SDS011;25426;53.478;10.190;2023-05-10T02:07:43;8.93;;;5.17;;
39740;SDS011;25426;53.478;10.190;2023-05-10T02:10:15;7.05;;;4.78;;
39740;SDS011;25426;53.478;10.190;2023-05-10T02:12:47;5.68;;;4.78;;
39740;SDS011;25426;53.478;10.190;2023-05-10T02:15:22;6.65;;;5.28;;
39740;SDS011;25426;53.478;10.190;2023-05-10T02:17:55;7.25;;;5.20;;
39740;SDS011;25426;53.478;10.190;2023-05-10T02:20:27;5.95;;;5.32;;
39740;SDS011;25426;53.478;10.190;2023-05-10T02:22:58;9.20;;;5.13;;
39740;SDS011;25426;53.478;10.190;2023-05-10T02:25:29;6.75;;;5.60;;
39740;SDS011;25426;53.478;10.190;2023-05-10T02:28:03;7.45;;;5.28;;
39740;SDS011;25426;53.478;10.190;2023-05-10T02:30:36;6.53;;;5.30;;
39740;SDS011;25426;53.478;10.190;2023-05-10T02:33:07;8.80;;;5.38;;
39740;SDS011;25426;53.478;10.190;2023-05-10T02:35:38;9.45;;;5.50;;
39740;SDS011;25426;53.478;10.190;2023-05-10T02:38:10;9.77;;;5.35;;
39740;SDS011;25426;53.478;10.190;2023-05-10T02:40:41;7.75;;;5.10;;
39740;SDS011;25426;53.478;10.190;2023-05-10T02:43:14;8.07;;;5.53;;
39740;SDS011;25426;53.478;10.190;2023-05-10T02:45:46;5.88;;;5.28;;
39740;SDS011;25426;53.478;10.190;2023-05-10T02:48:18;6.78;;;5.50;;
39740;SDS011;25426;53.478;10.190;2023-05-10T02:50:49;7.00;;;5.60;;
39740;SDS011;25426;53.478;10.190;2023-05-10T02:53:29;6.53;;;5.68;;
39740;SDS011;25426;53.478;10.190;2023-05-10T02:56:08;6.13;;;5.20;;
39740;SDS011;25426;53.478;10.190;2023-05-10T02:58:55;7.55;;;5.60;;
39740;SDS011;25426;53.478;10.190;2023-05-10T03:01:26;8.07;;;5.50;;
39740;SDS011;25426;53.478;10.190;2023-05-10T03:03:58;7.03;;;5.70;;
39740;SDS011;25426;53.478;10.190;2023-05-10T03:06:29;6.20;;;5.60;;
39740;SDS011;25426;53.478;10.190;2023-05-10T03:09:00;7.07;;;5.30;;
39740;SDS011;25426;53.478;10.190;2023-05-10T03:21:36;6.78;;;5.00;;
39740;SDS011;25426;53.478;10.190;2023-05-10T03:24:08;7.00;;;5.63;;
39740;SDS011;25426;53.478;10.190;2023-05-10T03:26:43;7.00;;;5.65;;
39740;SDS011;25426;53.478;10.190;2023-05-10T03:29:19;5.72;;;5.25;;
39740;SDS011;25426;53.478;10.190;2023-05-10T03:31:50;7.27;;;5.57;;
39740;SDS011;25426;53.478;10.190;2023-05-10T03:34:25;6.80;;;5.50;;
39740;SDS011;25426;53.478;10.190;2023-05-10T03:36:56;8.73;;;5.78;;
39740;SDS011;25426;53.478;10.190;2023-05-10T03:39:28;6.82;;;5.90;;
39740;SDS011;25426;53.478;10.190;2023-05-10T03:42:02;5.97;;;5.47;;
39740;SDS011;25426;53.478;10.190;2023-05-10T03:44:34;7.93;;;5.80;;
39740;SDS011;25426;53.478;10.190;2023-05-10T03:47:05;7.68;;;5.78;;
39740;SDS011;25426;53.478;10.190;2023-05-10T03:49:37;10.20;;;6.15;;
39740;SDS011;25426;53.478;10.190;2023-05-10T03:52:07;9.15;;;6.30;;
39740;SDS011;25426;53.478;10.190;2023-05-10T03:54:39;9.95;;;5.55;;
39740;SDS011;25426;53.478;10.190;2023-05-10T03:57:09;9.47;;;5.67;;
39740;SDS011;25426;53.478;10.190;2023-05-10T03:59:40;7.13;;;5.53;;
39740;SDS011;25426;53.478;10.190;2023-05-10T04:02:11;9.30;;;5.90;;
39740;SDS011;25426;53.478;10.190;2023-05-10T04:04:42;8.43;;;5.40;;
39740;SDS011;25426;53.478;10.190;2023-05-10T04:07:13;12.25;;;5.95;;
39740;SDS011;25426;53.478;10.190;2023-05-10T04:09:44;8.65;;;5.45;;
39740;SDS011;25426;53.478;10.190;2023-05-10T04:12:15;8.73;;;5.90;;
39740;SDS011;25426;53.478;10.190;2023-05-10T04:14:46;9.05;;;5.80;;
39740;SDS011;25426;53.478;10.190;2023-05-10T04:17:17;8.73;;;6.32;;
39740;SDS011;25426;53.478;10.190;2023-05-10T04:19:48;8.88;;;6.20;;
39740;SDS011;25426;53.478;10.190;2023-05-10T04:22:19;6.30;;;5.22;;
39740;SDS011;25426;53.478;10.190;2023-05-10T04:24:50;7.55;;;5.78;;
39740;SDS011;25426;53.478;10.190;2023-05-10T04:27:21;6.30;;;5.70;;
39740;SDS011;25426;53.478;10.190;2023-05-10T04:29:52;7.75;;;6.35;;
39740;SDS011;25426;53.478;10.190;2023-05-10T04:32:24;7.75;;;5.82;;
39740;SDS011;25426;53.478;10.190;2023-05-10T04:34:55;7.13;;;5.63;;
39740;SDS011;25426;53.478;10.190;2023-05-10T04:37:26;8.32;;;5.60;;
39740;SDS011;25426;53.478;10.190;2023-05-10T04:39:57;7.07;;;5.70;;
39740;SDS011;25426;53.478;10.190;2023-05-10T04:42:29;7.23;;;5.50;;
39740;SDS011;25426;53.478;10.190;2023-05-10T04:45:00;12.27;;;6.18;;
39740;SDS011;25426;53.478;10.190;2023-05-10T04:47:31;6.97;;;5.85;;
39740;SDS011;25426;53.478;10.190;2023-05-10T04:50:05;6.47;;;5.57;;
39740;SDS011;25426;53.478;10.190;2023-05-10T04:52:37;8.73;;;5.97;;
39740;SDS011;25426;53.478;10.190;2023-05-10T04:55:08;6.32;;;5.45;;
39740;SDS011;25426;53.478;10.190;2023-05-10T04:57:39;7.25;;;5.38;;
39740;SDS011;25426;53.478;10.190;2023-05-10T05:00:11;8.88;;;5.30;;
39740;SDS011;25426;53.478;10.190;2023-05-10T05:02:43;8.00;;;5.53;;
39740;SDS011;25426;53.478;10.190;2023-05-10T05:05:17;5.97;;;5.43;;
39740;SDS011;25426;53.478;10.190;2023-05-10T05:07:48;5.65;;;5.20;;
39740;SDS011;25426;53.478;10.190;2023-05-10T05:10:19;7.63;;;5.32;;
39740;SDS011;25426;53.478;10.190;2023-05-10T05:12:50;6.05;;;5.45;;
39740;SDS011;25426;53.478;10.190;2023-05-10T05:15:21;7.27;;;5.40;;
39740;SDS011;25426;53.478;10.190;2023-05-10T05:17:52;6.95;;;5.35;;
39740;SDS011;25426;53.478;10.190;2023-05-10T05:20:23;5.57;;;4.85;;
39740;SDS011;25426;53.478;10.190;2023-05-10T05:22:54;6.40;;;5.30;;
39740;SDS011;25426;53.478;10.190;2023-05-10T05:25:25;5.65;;;4.85;;
39740;SDS011;25426;53.478;10.190;2023-05-10T05:27:55;6.30;;;5.28;;
39740;SDS011;25426;53.478;10.190;2023-05-10T05:30:26;6.70;;;5.27;;
39740;SDS011;25426;53.478;10.190;2023-05-10T05:32:57;6.03;;;5.00;;
39740;SDS011;25426;53.478;10.190;2023-05-10T05:35:28;6.88;;;4.90;;
39740;SDS011;25426;53.478;10.190;2023-05-10T05:38:01;5.85;;;4.97;;
39740;SDS011;25426;53.478;10.190;2023-05-10T05:40:32;5.50;;;4.90;;
39740;SDS011;25426;53.478;10.190;2023-05-10T05:43:03;6.68;;;5.78;;
39740;SDS011;25426;53.478;10.190;2023-05-10T05:45:34;5.40;;;4.88;;
39740;SDS011;25426;53.478;10.190;2023-05-10T05:48:05;6.10;;;5.17;;
39740;SDS011;25426;53.478;10.190;2023-05-10T05:50:36;6.22;;;5.20;;
39740;SDS011;25426;53.478;10.190;2023-05-10T05:53:07;6.35;;;5.05;;
39740;SDS011;25426;53.478;10.190;2023-05-10T05:55:38;5.70;;;5.20;;
39740;SDS011;25426;53.478;10.190;2023-05-10T05:58:09;8.52;;;4.90;;
39740;SDS011;25426;53.478;10.190;2023-05-10T06:00:40;7.70;;;5.50;;
39740;SDS011;25426;53.478;10.190;2023-05-10T06:03:11;8.40;;;5.10;;
39740;SDS011;25426;53.478;10.190;2023-05-10T06:05:42;6.18;;;5.03;;
39740;SDS011;25426;53.478;10.190;2023-05-10T06:08:14;7.20;;;4.80;;
39740;SDS011;25426;53.478;10.190;2023-05-10T06:10:44;6.47;;;5.00;;
39740;SDS011;25426;53.478;10.190;2023-05-10T06:13:16;7.40;;;5.00;;
39740;SDS011;25426;53.478;10.190;2023-05-10T06:15:46;9.38;;;5.38;;
39740;SDS011;25426;53.478;10.190;2023-05-10T06:18:17;6.15;;;5.10;;
39740;SDS011;25426;53.478;10.190;2023-05-10T06:20:49;5.03;;;4.53;;
39740;SDS011;25426;53.478;10.190;2023-05-10T06:23:20;6.40;;;5.27;;
39740;SDS011;25426;53.478;10.190;2023-05-10T06:25:52;5.10;;;4.47;;
39740;SDS011;25426;53.478;10.190;2023-05-10T06:28:23;6.47;;;4.87;;
39740;SDS011;25426;53.478;10.190;2023-05-10T06:30:54;6.68;;;5.32;;
39740;SDS011;25426;53.478;10.190;2023-05-10T06:33:25;6.35;;;4.82;;
39740;SDS011;25426;53.478;10.190;2023-05-10T06:35:56;8.27;;;5.13;;
39740;SDS011;25426;53.478;10.190;2023-05-10T06:38:27;5.72;;;5.22;;
39740;SDS011;25426;53.478;10.190;2023-05-10T06:40:58;5.78;;;4.75;;
39740;SDS011;25426;53.478;10.190;2023-05-10T06:43:29;5.90;;;5.30;;
39740;SDS011;25426;53.478;10.190;2023-05-10T06:46:00;6.85;;;5.28;;
39740;SDS011;25426;53.478;10.190;2023-05-10T06:48:31;8.20;;;5.07;;
39740;SDS011;25426;53.478;10.190;2023-05-10T06:51:02;6.88;;;5.25;;
39740;SDS011;25426;53.478;10.190;2023-05-10T06:53:33;5.47;;;4.97;;
39740;SDS011;25426;53.478;10.190;2023-05-10T06:56:04;5.88;;;5.35;;
39740;SDS011;25426;53.478;10.190;2023-05-10T06:58:35;5.78;;;5.10;;
39740;SDS011;25426;53.478;10.190;2023-05-10T07:01:06;6.30;;;5.17;;
39740;SDS011;25426;53.478;10.190;2023-05-10T07:03:38;7.10;;;5.30;;
39740;SDS011;25426;53.478;10.190;2023-05-10T07:06:09;6.88;;;5.32;;
39740;SDS011;25426;53.478;10.190;2023-05-10T07:08:40;5.50;;;4.95;;
39740;SDS011;25426;53.478;10.190;2023-05-10T07:11:11;5.22;;;4.72;;
39740;SDS011;25426;53.478;10.190;2023-05-10T07:13:42;5.57;;;4.97;;
39740;SDS011;25426;53.478;10.190;2023-05-10T07:16:14;7.60;;;5.00;;
39740;SDS011;25426;53.478;10.190;2023-05-10T07:18:45;5.20;;;4.80;;
39740;SDS011;25426;53.478;10.190;2023-05-10T07:21:16;4.80;;;4.40;;
39740;SDS011;25426;53.478;10.190;2023-05-10T07:23:47;5.10;;;4.60;;
39740;SDS011;25426;53.478;10.190;2023-05-10T07:26:17;5.32;;;4.82;;
39740;SDS011;25426;53.478;10.190;2023-05-10T07:28:49;6.45;;;4.75;;
39740;SDS011;25426;53.478;10.190;2023-05-10T07:31:20;6.13;;;4.95;;
39740;SDS011;25426;53.478;10.190;2023-05-10T07:33:51;7.30;;;4.70;;
39740;SDS011;25426;53.478;10.190;2023-05-10T07:36:22;9.02;;;5.03;;
39740;SDS011;25426;53.478;10.190;2023-05-10T07:38:53;4.97;;;4.50;;
39740;SDS011;25426;53.478;10.190;2023-05-10T07:41:24;6.97;;;4.50;;
39740;SDS011;25426;53.478;10.190;2023-05-10T07:43:54;5.83;;;4.80;;
39740;SDS011;25426;53.478;10.190;2023-05-10T07:46:25;6.38;;;5.03;;
39740;SDS011;25426;53.478;10.190;2023-05-10T07:48:56;6.00;;;4.93;;
39740;SDS011;25426;53.478;10.190;2023-05-10T07:51:27;5.95;;;4.95;;
39740;SDS011;25426;53.478;10.190;2023-05-10T07:53:58;6.65;;;4.57;;
39740;SDS011;25426;53.478;10.190;2023-05-10T07:56:30;5.93;;;4.53;;
39740;SDS011;25426;53.478;10.190;2023-05-10T07:59:02;5.88;;;4.78;;
39740;SDS011;25426;53.478;10.190;2023-05-10T08:01:35;10.35;;;4.78;;
39740;SDS011;25426;53.478;10.190;2023-05-10T08:04:06;7.30;;;4.93;;
39740;SDS011;25426;53.478;10.190;2023-05-10T08:06:37;8.98;;;5.07;;
39740;SDS011;25426;53.478;10.190;2023-05-10T08:09:08;6.07;;;5.20;;
39740;SDS011;25426;53.478;10.190;2023-05-10T08:11:39;6.40;;;5.40;;
39740;SDS011;25426;53.478;10.190;2023-05-10T08:14:10;5.25;;;4.80;;
39740;SDS011;25426;53.478;10.190;2023-05-10T08:16:41;5.60;;;4.90;;
39740;SDS011;25426;53.478;10.190;2023-05-10T08:19:12;5.60;;;5.07;;
39740;SDS011;25426;53.478;10.190;2023-05-10T08:21:43;5.78;;;5.13;;
39740;SDS011;25426;53.478;10.190;2023-05-10T08:24:15;7.53;;;5.25;;
39740;SDS011;25426;53.478;10.190;2023-05-10T08:26:46;5.75;;;4.88;;
39740;SDS011;25426;53.478;10.190;2023-05-10T08:29:17;6.60;;;5.15;;
39740;SDS011;25426;53.478;10.190;2023-05-10T08:31:48;8.82;;;5.13;;
39740;SDS011;25426;53.478;10.190;2023-05-10T08:34:19;5.90;;;4.90;;
39740;SDS011;25426;53.478;10.190;2023-05-10T08:36:50;7.43;;;5.20;;
39740;SDS011;25426;53.478;10.190;2023-05-10T08:39:21;7.43;;;5.13;;
39740;SDS011;25426;53.478;10.190;2023-05-10T08:41:53;5.77;;;5.13;;
39740;SDS011;25426;53.478;10.190;2023-05-10T08:44:24;7.35;;;5.15;;
39740;SDS011;25426;53.478;10.190;2023-05-10T08:46:55;5.97;;;4.83;;
39740;SDS011;25426;53.478;10.190;2023-05-10T08:49:27;5.37;;;4.90;;
39740;SDS011;25426;53.478;10.190;2023-05-10T08:51:58;6.45;;;4.90;;
39740;SDS011;25426;53.478;10.190;2023-05-10T08:54:34;5.28;;;4.80;;
39740;SDS011;25426;53.478;10.190;2023-05-10T08:57:05;5.40;;;4.80;;
39740;SDS011;25426;53.478;10.190;2023-05-10T08:59:36;7.90;;;5.00;;
39740;SDS011;25426;53.478;10.190;2023-05-10T09:02:09;5.50;;;4.85;;
39740;SDS011;25426;53.478;10.190;2023-05-10T09:04:41;5.95;;;5.35;;
39740;SDS011;25426;53.478;10.190;2023-05-10T09:07:12;7.13;;;5.43;;
39740;SDS011;25426;53.478;10.190;2023-05-10T09:09:43;8.30;;;5.53;;
39740;SDS011;25426;53.478;10.190;2023-05-10T09:12:14;8.53;;;5.57;;
39740;SDS011;25426;53.478;10.190;2023-05-10T09:14:46;9.57;;;5.05;;
39740;SDS011;25426;53.478;10.190;2023-05-10T09:17:17;6.70;;;5.65;;
39740;SDS011;25426;53.478;10.190;2023-05-10T09:19:48;6.20;;;5.03;;
39740;SDS011;25426;53.478;10.190;2023-05-10T09:22:19;6.07;;;5.17;;
39740;SDS011;25426;53.478;10.190;2023-05-10T09:25:03;7.50;;;5.60;;
39740;SDS011;25426;53.478;10.190;2023-05-10T09:27:36;6.40;;;5.60;;
39740;SDS011;25426;53.478;10.190;2023-05-10T09:30:09;7.03;;;5.38;;
39740;SDS011;25426;53.478;10.190;2023-05-10T09:32:42;7.47;;;5.53;;
39740;SDS011;25426;53.478;10.190;2023-05-10T09:35:17;8.07;;;5.60;;
39740;SDS011;25426;53.478;10.190;2023-05-10T09:37:51;7.07;;;5.90;;
39740;SDS011;25426;53.478;10.190;2023-05-10T09:40:26;6.82;;;5.53;;
39740;SDS011;25426;53.478;10.190;2023-05-10T09:42:59;7.65;;;5.90;;
39740;SDS011;25426;53.478;10.190;2023-05-10T09:45:38;6.85;;;5.53;;
39740;SDS011;25426;53.478;10.190;2023-05-10T09:48:09;7.35;;;5.95;;
39740;SDS011;25426;53.478;10.190;2023-05-10T09:50:40;10.50;;;6.00;;
39740;SDS011;25426;53.478;10.190;2023-05-10T09:53:14;6.30;;;5.70;;
39740;SDS011;25426;53.478;10.190;2023-05-10T09:55:46;6.97;;;6.00;;
39740;SDS011;25426;53.478;10.190;2023-05-10T09:58:19;6.80;;;6.10;;
39740;SDS011;25426;53.478;10.190;2023-05-10T10:00:50;7.00;;;6.30;;
39740;SDS011;25426;53.478;10.190;2023-05-10T10:03:22;6.78;;;6.18;;
39740;SDS011;25426;53.478;10.190;2023-05-10T10:05:54;8.88;;;7.15;;
39740;SDS011;25426;53.478;10.190;2023-05-10T10:08:25;7.45;;;6.78;;
39740;SDS011;25426;53.478;10.190;2023-05-10T10:10:57;7.80;;;7.10;;
39740;SDS011;25426;53.478;10.190;2023-05-10T10:13:28;7.85;;;7.15;;
39740;SDS011;25426;53.478;10.190;2023-05-10T10:16:00;8.65;;;7.68;;
39740;SDS011;25426;53.478;10.190;2023-05-10T10:18:30;9.43;;;8.55;;
39740;SDS011;25426;53.478;10.190;2023-05-10T10:21:01;9.57;;;8.60;;
39740;SDS011;25426;53.478;10.190;2023-05-10T10:23:32;10.25;;;9.27;;
39740;SDS011;25426;53.478;10.190;2023-05-10T10:26:05;10.43;;;9.43;;
39740;SDS011;25426;53.478;10.190;2023-05-10T10:35:21;10.20;;;9.20;;
39740;SDS011;25426;53.478;10.190;2023-05-10T10:37:52;10.70;;;9.80;;
39740;SDS011;25426;53.478;10.190;2023-05-10T10:40:24;10.82;;;9.93;;
39740;SDS011;25426;53.478;10.190;2023-05-10T10:46:13;11.30;;;10.40;;
39740;SDS011;25426;53.478;10.190;2023-05-10T10:48:47;11.57;;;10.65;;
39740;SDS011;25426;53.478;10.190;2023-05-10T10:51:28;11.15;;;10.27;;
39740;SDS011;25426;53.478;10.190;2023-05-10T10:54:08;11.30;;;10.30;;
39740;SDS011;25426;53.478;10.190;2023-05-10T10:56:40;11.52;;;10.57;;
39740;SDS011;25426;53.478;10.190;2023-05-10T10:59:11;11.82;;;10.63;;
39740;SDS011;25426;53.478;10.190;2023-05-10T11:01:42;10.10;;;9.10;;
39740;SDS011;25426;53.478;10.190;2023-05-10T11:06:49;10.45;;;9.55;;
39740;SDS011;25426;53.478;10.190;2023-05-10T11:09:19;10.52;;;9.52;;
39740;SDS011;25426;53.478;10.190;2023-05-10T11:11:55;10.45;;;9.45;;
39740;SDS011;25426;53.478;10.190;2023-05-10T11:14:26;10.23;;;9.32;;
39740;SDS011;25426;53.478;10.190;2023-05-10T11:16:57;10.80;;;9.77;;
39740;SDS011;25426;53.478;10.190;2023-05-10T11:19:28;10.30;;;9.40;;
39740;SDS011;25426;53.478;10.190;2023-05-10T11:24:35;12.20;;;11.07;;
39740;SDS011;25426;53.478;10.190;2023-05-10T11:27:06;12.23;;;11.13;;
39740;SDS011;25426;53.478;10.190;2023-05-10T11:29:37;11.65;;;10.57;;
39740;SDS011;25426;53.478;10.190;2023-05-10T11:32:08;11.85;;;10.77;;
39740;SDS011;25426;53.478;10.190;2023-05-10T11:34:39;11.60;;;10.50;;
39740;SDS011;25426;53.478;10.190;2023-05-10T11:37:10;11.63;;;10.73;;
39740;SDS011;25426;53.478;10.190;2023-05-10T11:39:45;11.48;;;10.57;;
39740;SDS011;25426;53.478;10.190;2023-05-10T11:42:19;11.70;;;10.50;;
39740;SDS011;25426;53.478;10.190;2023-05-10T11:44:49;11.30;;;10.20;;
39740;SDS011;25426;53.478;10.190;2023-05-10T11:47:20;11.98;;;11.00;;
39740;SDS011;25426;53.478;10.190;2023-05-10T11:49:52;12.25;;;11.18;;
39740;SDS011;25426;53.478;10.190;2023-05-10T11:52:23;12.50;;;11.40;;
39740;SDS011;25426;53.478;10.190;2023-05-10T11:54:54;11.95;;;10.85;;
39740;SDS011;25426;53.478;10.190;2023-05-10T11:57:26;12.90;;;11.87;;
39740;SDS011;25426;53.478;10.190;2023-05-10T11:59:58;12.30;;;11.18;;
39740;SDS011;25426;53.478;10.190;2023-05-10T12:02:29;12.82;;;11.73;;
39740;SDS011;25426;53.478;10.190;2023-05-10T12:05:00;12.60;;;11.52;;
39740;SDS011;25426;53.478;10.190;2023-05-10T12:07:33;12.25;;;11.25;;
39740;SDS011;25426;53.478;10.190;2023-05-10T12:12:45;13.57;;;12.38;;
39740;SDS011;25426;53.478;10.190;2023-05-10T12:15:23;13.27;;;12.18;;
39740;SDS011;25426;53.478;10.190;2023-05-10T12:17:54;14.00;;;12.80;;
39740;SDS011;25426;53.478;10.190;2023-05-10T12:20:27;13.95;;;12.55;;
39740;SDS011;25426;53.478;10.190;2023-05-10T12:22:58;13.40;;;12.27;;
39740;SDS011;25426;53.478;10.190;2023-05-10T12:25:33;11.97;;;10.90;;
39740;SDS011;25426;53.478;10.190;2023-05-10T12:28:08;12.70;;;11.52;;
39740;SDS011;25426;53.478;10.190;2023-05-10T12:30:39;12.05;;;11.05;;
39740;SDS011;25426;53.478;10.190;2023-05-10T12:33:11;12.10;;;11.10;;
39740;SDS011;25426;53.478;10.190;2023-05-10T12:35:50;11.30;;;10.40;;
39740;SDS011;25426;53.478;10.190;2023-05-10T12:38:34;10.45;;;9.45;;
39740;SDS011;25426;53.478;10.190;2023-05-10T12:41:11;10.98;;;10.02;;
39740;SDS011;25426;53.478;10.190;2023-05-10T12:43:45;11.32;;;10.32;;
39740;SDS011;25426;53.478;10.190;2023-05-10T12:46:16;11.90;;;10.90;;
39740;SDS011;25426;53.478;10.190;2023-05-10T12:48:48;12.13;;;11.02;;
39740;SDS011;25426;53.478;10.190;2023-05-10T12:51:24;9.57;;;8.60;;
39740;SDS011;25426;53.478;10.190;2023-05-10T12:53:55;9.00;;;8.30;;
39740;SDS011;25426;53.478;10.190;2023-05-10T12:56:26;9.10;;;8.40;;
39740;SDS011;25426;53.478;10.190;2023-05-10T12:58:57;9.03;;;8.23;;
39740;SDS011;25426;53.478;10.190;2023-05-10T13:01:28;9.55;;;8.75;;
39740;SDS011;25426;53.478;10.190;2023-05-10T13:03:59;8.65;;;7.88;;
39740;SDS011;25426;53.478;10.190;2023-05-10T13:06:30;7.45;;;6.68;;
39740;SDS011;25426;53.478;10.190;2023-05-10T13:09:01;6.43;;;5.90;;
39740;SDS011;25426;53.478;10.190;2023-05-10T13:11:32;7.30;;;6.60;;
39740;SDS011;25426;53.478;10.190;2023-05-10T13:14:03;7.30;;;6.70;;
39740;SDS011;25426;53.478;10.190;2023-05-10T13:16:34;7.13;;;6.60;;
39740;SDS011;25426;53.478;10.190;2023-05-10T13:19:05;8.00;;;7.30;;
39740;SDS011;25426;53.478;10.190;2023-05-10T13:21:36;8.10;;;7.40;;
39740;SDS011;25426;53.478;10.190;2023-05-10T13:24:07;8.25;;;7.55;;
39740;SDS011;25426;53.478;10.190;2023-05-10T13:26:39;8.20;;;7.57;;
39740;SDS011;25426;53.478;10.190;2023-05-10T13:29:10;8.00;;;7.27;;
39740;SDS011;25426;53.478;10.190;2023-05-10T13:31:41;8.10;;;7.47;;
39740;SDS011;25426;53.478;10.190;2023-05-10T13:34:12;8.68;;;7.88;;
39740;SDS011;25426;53.478;10.190;2023-05-10T13:36:43;7.07;;;6.53;;
39740;SDS011;25426;53.478;10.190;2023-05-10T13:39:14;7.45;;;6.85;;
39740;SDS011;25426;53.478;10.190;2023-05-10T13:41:46;7.75;;;7.15;;
39740;SDS011;25426;53.478;10.190;2023-05-10T13:44:17;6.50;;;6.00;;
39740;SDS011;25426;53.478;10.190;2023-05-10T13:46:48;8.32;;;7.57;;
39740;SDS011;25426;53.478;10.190;2023-05-10T13:49:18;7.20;;;6.70;;
39740;SDS011;25426;53.478;10.190;2023-05-10T13:51:49;6.90;;;6.40;;
39740;SDS011;25426;53.478;10.190;2023-05-10T13:54:21;7.30;;;6.70;;
39740;SDS011;25426;53.478;10.190;2023-05-10T13:56:52;6.45;;;5.85;;
39740;SDS011;25426;53.478;10.190;2023-05-10T13:59:23;6.67;;;6.17;;
39740;SDS011;25426;53.478;10.190;2023-05-10T14:01:54;7.15;;;6.55;;
39740;SDS011;25426;53.478;10.190;2023-05-10T14:04:25;7.13;;;6.63;;
39740;SDS011;25426;53.478;10.190;2023-05-10T14:06:56;7.97;;;7.17;;
39740;SDS011;25426;53.478;10.190;2023-05-10T14:09:27;7.57;;;6.97;;
39740;SDS011;25426;53.478;10.190;2023-05-10T14:11:58;7.45;;;6.82;;
39740;SDS011;25426;53.478;10.190;2023-05-10T14:14:29;7.50;;;6.90;;
39740;SDS011;25426;53.478;10.190;2023-05-10T14:17:00;7.63;;;7.03;;
39740;SDS011;25426;53.478;10.190;2023-05-10T14:19:31;6.73;;;6.23;;
39740;SDS011;25426;53.478;10.190;2023-05-10T14:22:03;7.28;;;6.68;;
39740;SDS011;25426;53.478;10.190;2023-05-10T14:24:34;7.30;;;6.70;;
39740;SDS011;25426;53.478;10.190;2023-05-10T14:27:05;7.53;;;6.93;;
39740;SDS011;25426;53.478;10.190;2023-05-10T14:29:37;8.23;;;7.55;;
39740;SDS011;25426;53.478;10.190;2023-05-10T14:32:07;8.80;;;8.07;;
39740;SDS011;25426;53.478;10.190;2023-05-10T14:34:38;9.13;;;8.43;;
39740;SDS011;25426;53.478;10.190;2023-05-10T14:37:10;9.27;;;8.55;;
39740;SDS011;25426;53.478;10.190;2023-05-10T14:39:43;8.32;;;7.65;;
39740;SDS011;25426;53.478;10.190;2023-05-10T14:42:14;8.32;;;7.72;;
39740;SDS011;25426;53.478;10.190;2023-05-10T14:44:45;8.80;;;8.10;;
39740;SDS011;25426;53.478;10.190;2023-05-10T14:47:16;7.90;;;7.30;;
39740;SDS011;25426;53.478;10.190;2023-05-10T14:49:46;8.52;;;7.63;;
39740;SDS011;25426;53.478;10.190;2023-05-10T14:52:17;8.20;;;7.60;;
39740;SDS011;25426;53.478;10.190;2023-05-10T14:54:48;7.95;;;7.28;;
39740;SDS011;25426;53.478;10.190;2023-05-10T14:57:19;8.40;;;7.80;;
39740;SDS011;25426;53.478;10.190;2023-05-10T14:59:50;8.43;;;7.63;;
39740;SDS011;25426;53.478;10.190;2023-05-10T15:02:21;8.63;;;7.82;;
39740;SDS011;25426;53.478;10.190;2023-05-10T15:04:54;8.20;;;7.60;;
39740;SDS011;25426;53.478;10.190;2023-05-10T15:07:25;7.73;;;7.03;;
39740;SDS011;25426;53.478;10.190;2023-05-10T15:09:56;6.88;;;6.30;;
39740;SDS011;25426;53.478;10.190;2023-05-10T15:12:27;6.30;;;5.80;;
39740;SDS011;25426;53.478;10.190;2023-05-10T15:14:57;6.85;;;6.25;;
39740;SDS011;25426;53.478;10.190;2023-05-10T15:17:28;6.63;;;6.13;;
39740;SDS011;25426;53.478;10.190;2023-05-10T15:20:00;7.03;;;6.53;;
39740;SDS011;25426;53.478;10.190;2023-05-10T15:22:33;6.05;;;5.45;;
39740;SDS011;25426;53.478;10.190;2023-05-10T15:25:04;6.25;;;5.75;;
39740;SDS011;25426;53.478;10.190;2023-05-10T15:27:35;5.43;;;5.03;;
39740;SDS011;25426;53.478;10.190;2023-05-10T15:30:06;5.75;;;5.35;;
39740;SDS011;25426;53.478;10.190;2023-05-10T15:32:38;5.28;;;4.88;;
39740;SDS011;25426;53.478;10.190;2023-05-10T15:35:10;5.70;;;5.20;;
39740;SDS011;25426;53.478;10.190;2023-05-10T15:37:41;4.70;;;4.30;;
39740;SDS011;25426;53.478;10.190;2023-05-10T15:40:11;6.07;;;5.47;;